sensor_id;sensor_type;location;lat;lon;timestamp;temperature;humidity
32977;DHT22;47687;50.842;4.450;2022-12-29T00:02:09;11.60;99.90
32977;DHT22;47687;50.842;4.450;2022-12-29T00:04:35;11.60;99.90
32977;DHT22;47687;50.842;4.450;2022-12-29T00:07:00;11.60;99.90
32977;DHT22;47687;50.842;4.450;2022-12-29T00:09:26;11.70;99.90
32977;DHT22;47687;50.842;4.450;2022-12-29T00:11:52;11.50;99.90
32977;DHT22;47687;50.842;4.450;2022-12-29T00:14:17;11.60;99.90
32977;DHT22;47687;50.842;4.450;2022-12-29T00:17:02;11.50;99.90
32977;DHT22;47687;50.842;4.450;2022-12-29T00:19:28;11.60;99.90
32977;DHT22;47687;50.842;4.450;2022-12-29T00:22:14;11.50;99.90
32977;DHT22;47687;50.842;4.450;2022-12-29T00:24:58;11.70;99.90
32977;DHT22;47687;50.842;4.450;2022-12-29T00:27:31;11.70;99.90
32977;DHT22;47687;50.842;4.450;2022-12-29T00:30:20;11.70;99.90
32977;DHT22;47687;50.842;4.450;2022-12-29T00:33:12;11.70;99.90
32977;DHT22;47687;50.842;4.450;2022-12-29T00:36:06;11.70;99.90
32977;DHT22;47687;50.842;4.450;2022-12-29T00:38:36;11.80;99.90
32977;DHT22;47687;50.842;4.450;2022-12-29T00:41:21;11.90;99.90
32977;DHT22;47687;50.842;4.450;2022-12-29T00:44:19;11.90;99.90
32977;DHT22;47687;50.842;4.450;2022-12-29T00:46:45;11.90;99.90
32977;DHT22;47687;50.842;4.450;2022-12-29T00:49:12;11.90;99.90
32977;DHT22;47687;50.842;4.450;2022-12-29T00:51:58;12.00;99.90
32977;DHT22;47687;50.842;4.450;2022-12-29T00:54:24;12.00;99.90
32977;DHT22;47687;50.842;4.450;2022-12-29T00:56:51;12.10;99.90
32977;DHT22;47687;50.842;4.450;2022-12-29T00:59:18;12.20;99.90
32977;DHT22;47687;50.842;4.450;2022-12-29T01:01:44;12.10;99.90
32977;DHT22;47687;50.842;4.450;2022-12-29T01:04:10;12.10;99.90
32977;DHT22;47687;50.842;4.450;2022-12-29T01:06:38;12.10;99.90
32977;DHT22;47687;50.842;4.450;2022-12-29T01:09:04;12.20;99.90
32977;DHT22;47687;50.842;4.450;2022-12-29T01:11:49;12.20;99.90
32977;DHT22;47687;50.842;4.450;2022-12-29T01:14:15;12.10;99.90
32977;DHT22;47687;50.842;4.450;2022-12-29T01:16:40;12.10;99.90
32977;DHT22;47687;50.842;4.450;2022-12-29T01:19:06;12.10;99.90
32977;DHT22;47687;50.842;4.450;2022-12-29T01:21:32;11.90;99.90
32977;DHT22;47687;50.842;4.450;2022-12-29T01:23:58;11.80;99.90
32977;DHT22;47687;50.842;4.450;2022-12-29T01:26:23;11.70;99.90
32977;DHT22;47687;50.842;4.450;2022-12-29T01:28:49;11.60;99.90
32977;DHT22;47687;50.842;4.450;2022-12-29T01:31:15;11.60;99.90
32977;DHT22;47687;50.842;4.450;2022-12-29T01:33:42;11.50;99.90
32977;DHT22;47687;50.842;4.450;2022-12-29T01:36:10;11.50;99.90
32977;DHT22;47687;50.842;4.450;2022-12-29T01:38:37;11.50;99.90
32977;DHT22;47687;50.842;4.450;2022-12-29T01:41:04;11.30;99.90
32977;DHT22;47687;50.842;4.450;2022-12-29T01:43:43;11.30;99.90
32977;DHT22;47687;50.842;4.450;2022-12-29T01:48:54;11.20;99.90
32977;DHT22;47687;50.842;4.450;2022-12-29T01:51:23;11.10;99.90
32977;DHT22;47687;50.842;4.450;2022-12-29T01:53:50;11.10;99.90
32977;DHT22;47687;50.842;4.450;2022-12-29T01:56:17;11.00;99.90
32977;DHT22;47687;50.842;4.450;2022-12-29T01:58:46;11.00;99.90
32977;DHT22;47687;50.842;4.450;2022-12-29T02:01:13;11.10;99.90
32977;DHT22;47687;50.842;4.450;2022-12-29T02:03:39;11.10;99.90
32977;DHT22;47687;50.842;4.450;2022-12-29T02:06:10;11.10;99.90
32977;DHT22;47687;50.842;4.450;2022-12-29T02:08:37;11.00;99.90
32977;DHT22;47687;50.842;4.450;2022-12-29T02:11:05;10.90;99.90
32977;DHT22;47687;50.842;4.450;2022-12-29T02:13:31;10.80;99.90
32977;DHT22;47687;50.842;4.450;2022-12-29T02:18:51;10.80;99.90
32977;DHT22;47687;50.842;4.450;2022-12-29T02:29:53;10.50;99.90
32977;DHT22;47687;50.842;4.450;2022-12-29T02:35:29;10.40;99.90
32977;DHT22;47687;50.842;4.450;2022-12-29T02:40:51;10.30;99.90
32977;DHT22;47687;50.842;4.450;2022-12-29T02:51:54;10.20;99.90
32977;DHT22;47687;50.842;4.450;2022-12-29T02:54:20;10.10;99.90
32977;DHT22;47687;50.842;4.450;2022-12-29T02:59:48;10.00;99.90
32977;DHT22;47687;50.842;4.450;2022-12-29T03:02:39;10.00;99.90
32977;DHT22;47687;50.842;4.450;2022-12-29T03:08:22;9.80;99.90
32977;DHT22;47687;50.842;4.450;2022-12-29T03:10:59;9.80;99.90
32977;DHT22;47687;50.842;4.450;2022-12-29T03:13:48;9.80;99.90
32977;DHT22;47687;50.842;4.450;2022-12-29T03:16:42;9.70;99.90
32977;DHT22;47687;50.842;4.450;2022-12-29T03:19:25;9.60;99.90
32977;DHT22;47687;50.842;4.450;2022-12-29T03:24:46;9.50;99.90
32977;DHT22;47687;50.842;4.450;2022-12-29T03:27:15;9.50;99.90
32977;DHT22;47687;50.842;4.450;2022-12-29T03:29:47;9.50;99.90
32977;DHT22;47687;50.842;4.450;2022-12-29T03:32:19;9.70;99.90
32977;DHT22;47687;50.842;4.450;2022-12-29T03:34:46;9.60;99.90
32977;DHT22;47687;50.842;4.450;2022-12-29T03:37:15;9.80;99.90
32977;DHT22;47687;50.842;4.450;2022-12-29T03:39:42;9.90;99.90
32977;DHT22;47687;50.842;4.450;2022-12-29T03:42:20;9.90;99.90
32977;DHT22;47687;50.842;4.450;2022-12-29T03:44:46;9.70;99.90
32977;DHT22;47687;50.842;4.450;2022-12-29T03:47:14;9.60;99.90
32977;DHT22;47687;50.842;4.450;2022-12-29T03:49:40;9.70;99.90
32977;DHT22;47687;50.842;4.450;2022-12-29T03:52:05;9.60;99.90
32977;DHT22;47687;50.842;4.450;2022-12-29T03:54:31;9.60;99.90
32977;DHT22;47687;50.842;4.450;2022-12-29T03:56:57;9.70;99.90
32977;DHT22;47687;50.842;4.450;2022-12-29T03:59:22;9.90;99.90
32977;DHT22;47687;50.842;4.450;2022-12-29T04:01:48;9.70;99.90
32977;DHT22;47687;50.842;4.450;2022-12-29T04:04:14;9.70;99.90
32977;DHT22;47687;50.842;4.450;2022-12-29T04:06:39;9.50;99.90
32977;DHT22;47687;50.842;4.450;2022-12-29T04:09:05;9.50;99.90
32977;DHT22;47687;50.842;4.450;2022-12-29T04:11:31;9.40;99.90
32977;DHT22;47687;50.842;4.450;2022-12-29T04:13:56;9.50;99.90
32977;DHT22;47687;50.842;4.450;2022-12-29T04:16:22;9.40;99.90
32977;DHT22;47687;50.842;4.450;2022-12-29T04:18:47;9.40;99.90
32977;DHT22;47687;50.842;4.450;2022-12-29T04:21:13;9.30;99.90
32977;DHT22;47687;50.842;4.450;2022-12-29T04:23:39;9.20;99.90
32977;DHT22;47687;50.842;4.450;2022-12-29T04:26:05;9.30;99.90
32977;DHT22;47687;50.842;4.450;2022-12-29T04:28:35;9.20;99.90
32977;DHT22;47687;50.842;4.450;2022-12-29T04:31:01;9.30;99.90
32977;DHT22;47687;50.842;4.450;2022-12-29T04:33:27;9.30;99.90
32977;DHT22;47687;50.842;4.450;2022-12-29T04:35:53;9.30;99.90
32977;DHT22;47687;50.842;4.450;2022-12-29T04:38:19;9.40;99.90
32977;DHT22;47687;50.842;4.450;2022-12-29T04:40:46;9.40;99.90
32977;DHT22;47687;50.842;4.450;2022-12-29T04:43:12;9.50;99.90
32977;DHT22;47687;50.842;4.450;2022-12-29T04:45:42;9.50;99.90
32977;DHT22;47687;50.842;4.450;2022-12-29T04:48:08;9.60;99.90
32977;DHT22;47687;50.842;4.450;2022-12-29T04:50:34;9.60;99.90
32977;DHT22;47687;50.842;4.450;2022-12-29T04:52:59;9.80;99.90
32977;DHT22;47687;50.842;4.450;2022-12-29T04:55:25;9.70;99.90
32977;DHT22;47687;50.842;4.450;2022-12-29T04:57:51;10.30;99.90
32977;DHT22;47687;50.842;4.450;2022-12-29T05:00:17;9.90;99.90
32977;DHT22;47687;50.842;4.450;2022-12-29T05:02:42;9.80;99.90
32977;DHT22;47687;50.842;4.450;2022-12-29T05:05:08;9.90;99.90
32977;DHT22;47687;50.842;4.450;2022-12-29T05:07:34;10.00;99.90
32977;DHT22;47687;50.842;4.450;2022-12-29T05:10:00;10.00;99.90
32977;DHT22;47687;50.842;4.450;2022-12-29T05:12:25;10.00;99.90
32977;DHT22;47687;50.842;4.450;2022-12-29T05:14:51;10.00;99.90
32977;DHT22;47687;50.842;4.450;2022-12-29T05:17:16;10.10;99.90
32977;DHT22;47687;50.842;4.450;2022-12-29T05:19:42;10.00;99.90
32977;DHT22;47687;50.842;4.450;2022-12-29T05:22:08;10.00;99.90
32977;DHT22;47687;50.842;4.450;2022-12-29T05:24:33;10.10;99.90
32977;DHT22;47687;50.842;4.450;2022-12-29T05:26:59;10.10;99.90
32977;DHT22;47687;50.842;4.450;2022-12-29T05:29:24;10.10;99.90
32977;DHT22;47687;50.842;4.450;2022-12-29T05:31:50;10.30;99.90
32977;DHT22;47687;50.842;4.450;2022-12-29T05:34:15;10.10;99.90
32977;DHT22;47687;50.842;4.450;2022-12-29T05:36:41;10.10;99.90
32977;DHT22;47687;50.842;4.450;2022-12-29T05:39:06;10.20;99.90
32977;DHT22;47687;50.842;4.450;2022-12-29T05:41:33;10.20;99.90
32977;DHT22;47687;50.842;4.450;2022-12-29T05:43:59;10.30;99.90
32977;DHT22;47687;50.842;4.450;2022-12-29T05:46:25;10.20;99.90
32977;DHT22;47687;50.842;4.450;2022-12-29T05:48:51;10.20;99.90
32977;DHT22;47687;50.842;4.450;2022-12-29T05:51:17;10.20;99.90
32977;DHT22;47687;50.842;4.450;2022-12-29T05:53:42;10.20;99.90
32977;DHT22;47687;50.842;4.450;2022-12-29T05:56:08;10.10;99.90
32977;DHT22;47687;50.842;4.450;2022-12-29T05:58:33;10.20;99.90
32977;DHT22;47687;50.842;4.450;2022-12-29T06:00:59;10.10;99.90
32977;DHT22;47687;50.842;4.450;2022-12-29T06:03:24;9.90;99.90
32977;DHT22;47687;50.842;4.450;2022-12-29T06:05:50;9.90;99.90
32977;DHT22;47687;50.842;4.450;2022-12-29T06:08:16;9.70;99.90
32977;DHT22;47687;50.842;4.450;2022-12-29T06:10:41;9.80;99.90
32977;DHT22;47687;50.842;4.450;2022-12-29T06:13:07;9.80;99.90
32977;DHT22;47687;50.842;4.450;2022-12-29T06:15:33;9.90;99.90
32977;DHT22;47687;50.842;4.450;2022-12-29T06:17:58;9.90;99.90
32977;DHT22;47687;50.842;4.450;2022-12-29T06:20:24;9.90;99.90
32977;DHT22;47687;50.842;4.450;2022-12-29T06:22:50;9.70;99.90
32977;DHT22;47687;50.842;4.450;2022-12-29T06:25:16;9.60;99.90
32977;DHT22;47687;50.842;4.450;2022-12-29T06:27:42;9.60;99.90
32977;DHT22;47687;50.842;4.450;2022-12-29T06:30:08;9.60;99.90
32977;DHT22;47687;50.842;4.450;2022-12-29T06:32:35;9.60;99.90
32977;DHT22;47687;50.842;4.450;2022-12-29T06:35:01;9.60;99.90
32977;DHT22;47687;50.842;4.450;2022-12-29T06:37:26;9.60;99.90
32977;DHT22;47687;50.842;4.450;2022-12-29T06:39:52;9.80;99.90
32977;DHT22;47687;50.842;4.450;2022-12-29T06:42:18;10.00;99.90
32977;DHT22;47687;50.842;4.450;2022-12-29T06:44:43;10.00;99.90
32977;DHT22;47687;50.842;4.450;2022-12-29T06:47:09;10.00;99.90
32977;DHT22;47687;50.842;4.450;2022-12-29T06:49:34;10.10;99.90
32977;DHT22;47687;50.842;4.450;2022-12-29T06:52:00;10.30;99.90
32977;DHT22;47687;50.842;4.450;2022-12-29T06:54:29;10.30;99.90
32977;DHT22;47687;50.842;4.450;2022-12-29T06:56:55;10.20;99.90
32977;DHT22;47687;50.842;4.450;2022-12-29T06:59:20;10.20;99.90
32977;DHT22;47687;50.842;4.450;2022-12-29T07:01:46;10.20;99.90
32977;DHT22;47687;50.842;4.450;2022-12-29T07:04:11;10.20;99.90
32977;DHT22;47687;50.842;4.450;2022-12-29T07:06:37;10.20;99.90
32977;DHT22;47687;50.842;4.450;2022-12-29T07:09:03;10.20;99.90
32977;DHT22;47687;50.842;4.450;2022-12-29T07:11:29;10.20;99.90
32977;DHT22;47687;50.842;4.450;2022-12-29T07:13:55;10.30;99.90
32977;DHT22;47687;50.842;4.450;2022-12-29T07:16:21;10.20;99.90
32977;DHT22;47687;50.842;4.450;2022-12-29T07:18:47;10.10;99.90
32977;DHT22;47687;50.842;4.450;2022-12-29T07:21:12;10.40;99.90
32977;DHT22;47687;50.842;4.450;2022-12-29T07:23:38;10.20;99.90
32977;DHT22;47687;50.842;4.450;2022-12-29T07:26:06;10.20;99.90
32977;DHT22;47687;50.842;4.450;2022-12-29T07:28:33;10.40;99.90
32977;DHT22;47687;50.842;4.450;2022-12-29T07:30:59;10.30;99.90
32977;DHT22;47687;50.842;4.450;2022-12-29T07:33:25;10.80;99.90
32977;DHT22;47687;50.842;4.450;2022-12-29T07:35:51;10.40;99.90
32977;DHT22;47687;50.842;4.450;2022-12-29T07:38:16;10.60;99.90
32977;DHT22;47687;50.842;4.450;2022-12-29T07:40:43;10.40;99.90
32977;DHT22;47687;50.842;4.450;2022-12-29T07:43:08;10.50;99.90
32977;DHT22;47687;50.842;4.450;2022-12-29T07:45:34;10.20;99.90
32977;DHT22;47687;50.842;4.450;2022-12-29T07:47:59;10.30;99.90
32977;DHT22;47687;50.842;4.450;2022-12-29T07:50:25;10.40;99.90
32977;DHT22;47687;50.842;4.450;2022-12-29T07:52:51;10.50;99.90
32977;DHT22;47687;50.842;4.450;2022-12-29T07:55:16;10.50;99.90
32977;DHT22;47687;50.842;4.450;2022-12-29T07:57:42;10.50;99.90
32977;DHT22;47687;50.842;4.450;2022-12-29T08:00:08;10.50;99.90
32977;DHT22;47687;50.842;4.450;2022-12-29T08:02:35;10.50;99.90
32977;DHT22;47687;50.842;4.450;2022-12-29T08:05:00;10.60;99.90
32977;DHT22;47687;50.842;4.450;2022-12-29T08:07:26;10.80;99.90
32977;DHT22;47687;50.842;4.450;2022-12-29T08:09:52;10.70;99.90
32977;DHT22;47687;50.842;4.450;2022-12-29T08:12:18;10.70;99.90
32977;DHT22;47687;50.842;4.450;2022-12-29T08:14:44;10.70;99.90
32977;DHT22;47687;50.842;4.450;2022-12-29T08:17:10;10.60;99.90
32977;DHT22;47687;50.842;4.450;2022-12-29T08:19:36;11.00;99.90
32977;DHT22;47687;50.842;4.450;2022-12-29T08:22:02;10.60;99.90
32977;DHT22;47687;50.842;4.450;2022-12-29T08:24:27;10.70;99.90
32977;DHT22;47687;50.842;4.450;2022-12-29T08:26:53;10.80;99.90
32977;DHT22;47687;50.842;4.450;2022-12-29T08:29:18;10.90;99.90
32977;DHT22;47687;50.842;4.450;2022-12-29T08:31:44;11.20;99.90
32977;DHT22;47687;50.842;4.450;2022-12-29T08:34:10;11.70;99.90
32977;DHT22;47687;50.842;4.450;2022-12-29T08:36:36;10.90;99.90
32977;DHT22;47687;50.842;4.450;2022-12-29T08:39:02;10.80;99.90
32977;DHT22;47687;50.842;4.450;2022-12-29T08:41:27;10.90;99.90
32977;DHT22;47687;50.842;4.450;2022-12-29T08:43:53;11.20;99.90
32977;DHT22;47687;50.842;4.450;2022-12-29T08:46:18;11.60;99.90
32977;DHT22;47687;50.842;4.450;2022-12-29T08:48:44;10.90;99.90
32977;DHT22;47687;50.842;4.450;2022-12-29T08:51:10;11.00;99.90
32977;DHT22;47687;50.842;4.450;2022-12-29T08:53:36;11.30;99.90
32977;DHT22;47687;50.842;4.450;2022-12-29T08:56:01;11.10;99.90
32977;DHT22;47687;50.842;4.450;2022-12-29T08:58:27;11.10;99.90
32977;DHT22;47687;50.842;4.450;2022-12-29T09:00:54;11.10;99.90
32977;DHT22;47687;50.842;4.450;2022-12-29T09:03:20;11.10;99.90
32977;DHT22;47687;50.842;4.450;2022-12-29T09:05:50;11.20;99.90
32977;DHT22;47687;50.842;4.450;2022-12-29T09:08:16;11.10;99.90
32977;DHT22;47687;50.842;4.450;2022-12-29T09:10:43;11.10;99.90
32977;DHT22;47687;50.842;4.450;2022-12-29T09:13:09;11.00;99.90
32977;DHT22;47687;50.842;4.450;2022-12-29T09:15:35;10.90;99.90
32977;DHT22;47687;50.842;4.450;2022-12-29T09:18:01;11.00;99.90
32977;DHT22;47687;50.842;4.450;2022-12-29T09:20:26;11.10;99.90
32977;DHT22;47687;50.842;4.450;2022-12-29T09:22:52;11.10;99.90
32977;DHT22;47687;50.842;4.450;2022-12-29T09:25:17;11.30;99.90
32977;DHT22;47687;50.842;4.450;2022-12-29T09:27:43;11.60;99.90
32977;DHT22;47687;50.842;4.450;2022-12-29T09:30:11;11.30;99.90
32977;DHT22;47687;50.842;4.450;2022-12-29T09:32:37;11.20;99.90
32977;DHT22;47687;50.842;4.450;2022-12-29T09:35:03;11.10;99.90
32977;DHT22;47687;50.842;4.450;2022-12-29T09:37:29;11.00;99.90
32977;DHT22;47687;50.842;4.450;2022-12-29T09:39:54;11.00;99.90
32977;DHT22;47687;50.842;4.450;2022-12-29T09:48:27;11.00;99.90
32977;DHT22;47687;50.842;4.450;2022-12-29T09:50:57;11.30;99.90
32977;DHT22;47687;50.842;4.450;2022-12-29T09:53:35;11.30;99.90
32977;DHT22;47687;50.842;4.450;2022-12-29T09:56:03;11.50;99.90
32977;DHT22;47687;50.842;4.450;2022-12-29T09:58:41;11.50;99.90
32977;DHT22;47687;50.842;4.450;2022-12-29T10:03:54;11.60;99.90
32977;DHT22;47687;50.842;4.450;2022-12-29T10:17:54;11.70;99.90
32977;DHT22;47687;50.842;4.450;2022-12-29T10:21:05;11.50;99.90
32977;DHT22;47687;50.842;4.450;2022-12-29T10:23:39;11.60;99.90
32977;DHT22;47687;50.842;4.450;2022-12-29T10:26:13;11.70;99.90
32977;DHT22;47687;50.842;4.450;2022-12-29T10:28:56;11.80;99.90
32977;DHT22;47687;50.842;4.450;2022-12-29T10:31:44;11.80;99.90
32977;DHT22;47687;50.842;4.450;2022-12-29T10:34:30;11.80;99.90
32977;DHT22;47687;50.842;4.450;2022-12-29T10:37:38;11.80;99.90
32977;DHT22;47687;50.842;4.450;2022-12-29T10:42:59;11.70;99.90
32977;DHT22;47687;50.842;4.450;2022-12-29T10:45:31;12.40;99.90
32977;DHT22;47687;50.842;4.450;2022-12-29T10:48:10;11.80;99.90
32977;DHT22;47687;50.842;4.450;2022-12-29T10:50:39;11.90;99.90
32977;DHT22;47687;50.842;4.450;2022-12-29T10:53:15;12.00;99.90
32977;DHT22;47687;50.842;4.450;2022-12-29T10:55:43;12.00;99.90
32977;DHT22;47687;50.842;4.450;2022-12-29T10:58:12;12.10;99.90
32977;DHT22;47687;50.842;4.450;2022-12-29T11:00:39;12.00;99.90
32977;DHT22;47687;50.842;4.450;2022-12-29T11:03:08;12.10;99.90
32977;DHT22;47687;50.842;4.450;2022-12-29T11:05:52;12.10;99.90
32977;DHT22;47687;50.842;4.450;2022-12-29T11:08:24;12.30;99.90
32977;DHT22;47687;50.842;4.450;2022-12-29T11:10:59;12.40;99.90
32977;DHT22;47687;50.842;4.450;2022-12-29T11:13:28;12.60;99.90
32977;DHT22;47687;50.842;4.450;2022-12-29T11:15:54;12.70;99.90
32977;DHT22;47687;50.842;4.450;2022-12-29T11:18:38;12.60;99.90
32977;DHT22;47687;50.842;4.450;2022-12-29T11:24:20;13.00;99.90
32977;DHT22;47687;50.842;4.450;2022-12-29T11:26:46;13.10;99.90
32977;DHT22;47687;50.842;4.450;2022-12-29T11:29:29;13.20;99.90
32977;DHT22;47687;50.842;4.450;2022-12-29T11:32:06;13.30;99.90
32977;DHT22;47687;50.842;4.450;2022-12-29T11:34:35;13.20;99.90
32977;DHT22;47687;50.842;4.450;2022-12-29T11:37:15;12.90;99.90
32977;DHT22;47687;50.842;4.450;2022-12-29T11:42:52;12.40;99.90
32977;DHT22;47687;50.842;4.450;2022-12-29T11:45:31;12.30;99.90
32977;DHT22;47687;50.842;4.450;2022-12-29T11:48:07;12.00;99.90
32977;DHT22;47687;50.842;4.450;2022-12-29T11:50:39;11.80;99.90
32977;DHT22;47687;50.842;4.450;2022-12-29T11:53:06;11.90;99.90
32977;DHT22;47687;50.842;4.450;2022-12-29T11:55:33;11.80;99.90
32977;DHT22;47687;50.842;4.450;2022-12-29T11:58:02;11.80;99.90
32977;DHT22;47687;50.842;4.450;2022-12-29T12:00:32;12.00;99.90
32977;DHT22;47687;50.842;4.450;2022-12-29T12:03:19;11.80;99.90
32977;DHT22;47687;50.842;4.450;2022-12-29T12:06:24;11.60;99.90
32977;DHT22;47687;50.842;4.450;2022-12-29T12:08:54;11.40;99.90
32977;DHT22;47687;50.842;4.450;2022-12-29T12:11:24;11.40;99.90
32977;DHT22;47687;50.842;4.450;2022-12-29T12:14:01;11.40;99.90
32977;DHT22;47687;50.842;4.450;2022-12-29T12:16:40;11.30;99.90
32977;DHT22;47687;50.842;4.450;2022-12-29T12:19:34;11.50;99.90
32977;DHT22;47687;50.842;4.450;2022-12-29T12:22:29;11.60;99.90
32977;DHT22;47687;50.842;4.450;2022-12-29T12:25:09;11.50;99.90
32977;DHT22;47687;50.842;4.450;2022-12-29T12:27:48;11.50;99.90
32977;DHT22;47687;50.842;4.450;2022-12-29T12:30:19;11.60;99.90
32977;DHT22;47687;50.842;4.450;2022-12-29T12:38:20;11.60;99.90
32977;DHT22;47687;50.842;4.450;2022-12-29T12:40:59;11.50;99.90
32977;DHT22;47687;50.842;4.450;2022-12-29T12:43:39;11.50;99.90
32977;DHT22;47687;50.842;4.450;2022-12-29T12:46:28;11.50;99.90
32977;DHT22;47687;50.842;4.450;2022-12-29T12:51:48;11.90;99.90
32977;DHT22;47687;50.842;4.450;2022-12-29T12:58:27;11.70;99.90
32977;DHT22;47687;50.842;4.450;2022-12-29T13:00:21;11.70;99.90
32977;DHT22;47687;50.842;4.450;2022-12-29T13:03:13;11.80;99.90
32977;DHT22;47687;50.842;4.450;2022-12-29T13:17:46;11.60;99.90
32977;DHT22;47687;50.842;4.450;2022-12-29T13:34:29;11.50;99.90
32977;DHT22;47687;50.842;4.450;2022-12-29T13:37:11;11.50;99.90
32977;DHT22;47687;50.842;4.450;2022-12-29T13:39:42;11.50;99.90
32977;DHT22;47687;50.842;4.450;2022-12-29T13:42:11;11.70;99.90
32977;DHT22;47687;50.842;4.450;2022-12-29T13:44:43;11.40;99.90
32977;DHT22;47687;50.842;4.450;2022-12-29T13:50:01;11.40;99.90
32977;DHT22;47687;50.842;4.450;2022-12-29T13:52:36;11.40;99.90
32977;DHT22;47687;50.842;4.450;2022-12-29T13:58:26;11.30;99.90
32977;DHT22;47687;50.842;4.450;2022-12-29T14:01:20;11.20;99.90
32977;DHT22;47687;50.842;4.450;2022-12-29T14:03:53;11.00;99.90
32977;DHT22;47687;50.842;4.450;2022-12-29T14:06:28;10.90;99.90
32977;DHT22;47687;50.842;4.450;2022-12-29T14:08:58;10.90;99.90
32977;DHT22;47687;50.842;4.450;2022-12-29T14:11:35;10.90;99.90
32977;DHT22;47687;50.842;4.450;2022-12-29T14:14:20;11.10;99.90
32977;DHT22;47687;50.842;4.450;2022-12-29T14:16:46;11.10;99.90
32977;DHT22;47687;50.842;4.450;2022-12-29T14:19:26;11.60;99.90
32977;DHT22;47687;50.842;4.450;2022-12-29T14:22:02;11.10;99.90
32977;DHT22;47687;50.842;4.450;2022-12-29T14:34:47;11.30;99.90
32977;DHT22;47687;50.842;4.450;2022-12-29T14:37:26;11.30;99.90
32977;DHT22;47687;50.842;4.450;2022-12-29T14:40:06;11.40;99.90
32977;DHT22;47687;50.842;4.450;2022-12-29T14:42:38;11.40;99.90
32977;DHT22;47687;50.842;4.450;2022-12-29T14:45:06;11.30;99.90
32977;DHT22;47687;50.842;4.450;2022-12-29T14:50:15;11.20;99.90
32977;DHT22;47687;50.842;4.450;2022-12-29T14:53:05;11.20;99.90
32977;DHT22;47687;50.842;4.450;2022-12-29T14:58:07;10.70;99.90
32977;DHT22;47687;50.842;4.450;2022-12-29T15:00:38;10.40;99.90
32977;DHT22;47687;50.842;4.450;2022-12-29T15:05:44;10.20;99.90
32977;DHT22;47687;50.842;4.450;2022-12-29T15:08:13;10.20;99.90
32977;DHT22;47687;50.842;4.450;2022-12-29T15:11:15;10.10;99.90
32977;DHT22;47687;50.842;4.450;2022-12-29T15:13:42;9.80;99.90
32977;DHT22;47687;50.842;4.450;2022-12-29T15:18:54;8.60;99.90
32977;DHT22;47687;50.842;4.450;2022-12-29T15:21:31;8.60;99.90
32977;DHT22;47687;50.842;4.450;2022-12-29T15:23:57;8.20;99.90
32977;DHT22;47687;50.842;4.450;2022-12-29T15:26:23;8.20;99.90
32977;DHT22;47687;50.842;4.450;2022-12-29T15:29:01;8.30;99.90
32977;DHT22;47687;50.842;4.450;2022-12-29T15:31:26;8.10;99.90
32977;DHT22;47687;50.842;4.450;2022-12-29T15:33:54;7.90;99.90
32977;DHT22;47687;50.842;4.450;2022-12-29T15:36:23;8.10;99.90
32977;DHT22;47687;50.842;4.450;2022-12-29T15:38:49;8.00;99.90
32977;DHT22;47687;50.842;4.450;2022-12-29T15:46:15;7.90;99.90
32977;DHT22;47687;50.842;4.450;2022-12-29T15:48:41;8.40;99.90
32977;DHT22;47687;50.842;4.450;2022-12-29T15:51:18;8.00;99.90
32977;DHT22;47687;50.842;4.450;2022-12-29T15:53:47;8.10;99.90
32977;DHT22;47687;50.842;4.450;2022-12-29T15:56:13;8.10;99.90
32977;DHT22;47687;50.842;4.450;2022-12-29T15:58:43;8.10;99.90
32977;DHT22;47687;50.842;4.450;2022-12-29T16:03:50;8.20;99.90
32977;DHT22;47687;50.842;4.450;2022-12-29T16:06:32;8.20;99.90
32977;DHT22;47687;50.842;4.450;2022-12-29T16:09:07;8.20;99.90
32977;DHT22;47687;50.842;4.450;2022-12-29T16:11:39;8.10;99.90
32977;DHT22;47687;50.842;4.450;2022-12-29T16:14:52;7.90;99.90
32977;DHT22;47687;50.842;4.450;2022-12-29T16:17:23;7.90;99.90
32977;DHT22;47687;50.842;4.450;2022-12-29T16:19:57;7.80;99.90
32977;DHT22;47687;50.842;4.450;2022-12-29T16:22:39;7.80;99.90
32977;DHT22;47687;50.842;4.450;2022-12-29T16:25:19;7.80;99.90
32977;DHT22;47687;50.842;4.450;2022-12-29T16:27:46;7.80;99.90
32977;DHT22;47687;50.842;4.450;2022-12-29T16:30:21;7.90;99.90
32977;DHT22;47687;50.842;4.450;2022-12-29T16:32:49;7.90;99.90
32977;DHT22;47687;50.842;4.450;2022-12-29T16:35:26;7.90;99.90
32977;DHT22;47687;50.842;4.450;2022-12-29T16:43:23;8.00;99.90
32977;DHT22;47687;50.842;4.450;2022-12-29T16:48:29;8.00;99.90
32977;DHT22;47687;50.842;4.450;2022-12-29T16:51:11;8.00;99.90
32977;DHT22;47687;50.842;4.450;2022-12-29T16:53:40;7.80;99.90
32977;DHT22;47687;50.842;4.450;2022-12-29T16:56:28;7.80;99.90
32977;DHT22;47687;50.842;4.450;2022-12-29T16:59:00;7.80;99.90
32977;DHT22;47687;50.842;4.450;2022-12-29T17:01:26;8.00;99.90
32977;DHT22;47687;50.842;4.450;2022-12-29T17:03:57;7.90;99.90
32977;DHT22;47687;50.842;4.450;2022-12-29T17:06:23;8.40;99.90
32977;DHT22;47687;50.842;4.450;2022-12-29T17:08:51;7.80;99.90
32977;DHT22;47687;50.842;4.450;2022-12-29T17:14:04;7.60;99.90
32977;DHT22;47687;50.842;4.450;2022-12-29T17:16:30;7.60;99.90
32977;DHT22;47687;50.842;4.450;2022-12-29T17:18:56;7.90;99.90
32977;DHT22;47687;50.842;4.450;2022-12-29T17:21:21;7.50;99.90
32977;DHT22;47687;50.842;4.450;2022-12-29T17:23:47;7.60;99.90
32977;DHT22;47687;50.842;4.450;2022-12-29T17:26:12;7.50;99.90
32977;DHT22;47687;50.842;4.450;2022-12-29T17:28:38;7.60;99.90
32977;DHT22;47687;50.842;4.450;2022-12-29T17:31:05;7.60;99.90
32977;DHT22;47687;50.842;4.450;2022-12-29T17:33:37;7.80;99.90
32977;DHT22;47687;50.842;4.450;2022-12-29T17:36:03;7.60;99.90
32977;DHT22;47687;50.842;4.450;2022-12-29T17:38:35;7.60;99.90
32977;DHT22;47687;50.842;4.450;2022-12-29T17:41:02;7.60;99.90
32977;DHT22;47687;50.842;4.450;2022-12-29T17:43:27;7.60;99.90
32977;DHT22;47687;50.842;4.450;2022-12-29T17:45:55;8.20;99.90
32977;DHT22;47687;50.842;4.450;2022-12-29T17:48:21;7.60;99.90
32977;DHT22;47687;50.842;4.450;2022-12-29T17:50:50;7.70;99.90
32977;DHT22;47687;50.842;4.450;2022-12-29T17:53:20;7.60;99.90
32977;DHT22;47687;50.842;4.450;2022-12-29T17:55:47;7.60;99.90
32977;DHT22;47687;50.842;4.450;2022-12-29T18:00:50;7.60;99.90
32977;DHT22;47687;50.842;4.450;2022-12-29T18:05:53;7.60;99.90
32977;DHT22;47687;50.842;4.450;2022-12-29T18:08:19;7.60;99.90
32977;DHT22;47687;50.842;4.450;2022-12-29T18:10:45;7.60;99.90
32977;DHT22;47687;50.842;4.450;2022-12-29T18:13:24;8.00;99.90
32977;DHT22;47687;50.842;4.450;2022-12-29T18:15:51;7.90;99.90
32977;DHT22;47687;50.842;4.450;2022-12-29T18:18:23;7.60;99.90
32977;DHT22;47687;50.842;4.450;2022-12-29T18:20:51;7.80;99.90
32977;DHT22;47687;50.842;4.450;2022-12-29T18:23:25;7.70;99.90
32977;DHT22;47687;50.842;4.450;2022-12-29T18:26:06;7.50;99.90
32977;DHT22;47687;50.842;4.450;2022-12-29T18:28:36;7.50;99.90
32977;DHT22;47687;50.842;4.450;2022-12-29T18:31:02;7.40;99.90